FWV98 LYTV-LGSK
Flight info
| Callsign | FWV98 |
|---|---|
| Flight time | N/A |
| Altitude | 33000 |
| Route | LASTI DCT PETAK DCT DOBAR DCT TALAS UN130 TSL |
| Aircraft | A320/M-SDE3FGHIRWY/LB1 |
Departure
| Time | 2026-05-06 16:16 |
|---|---|
| Airport | Tivat Airport (LYTV) |
Arrival
| Time | N/A |
|---|---|
| Airport | Skiathos Island National Airport (LGSK) |
| Time | Latitude | Longitude | Altitude | Speed | Heading |
|---|---|---|---|---|---|
| 2026-05-06 15:51 | 42.41157 | 18.71750 | 25 ft | 0 kts | 148° |
| 2026-05-06 16:11 | 42.41142 | 18.71755 | 24 ft | 6 kts | 181° |
| 2026-05-06 16:12 | 42.41145 | 18.71723 | 25 ft | 8 kts | 297° |
| 2026-05-06 16:12 | 42.41198 | 18.71650 | 24 ft | 10 kts | 319° |
| 2026-05-06 16:12 | 42.41244 | 18.71595 | 25 ft | 8 kts | 318° |
| 2026-05-06 16:12 | 42.41285 | 18.71546 | 24 ft | 9 kts | 318° |
| 2026-05-06 16:13 | 42.41332 | 18.71490 | 23 ft | 9 kts | 318° |
| 2026-05-06 16:13 | 42.41354 | 18.71425 | 23 ft | 8 kts | 264° |
| 2026-05-06 16:13 | 42.41318 | 18.71364 | 22 ft | 9 kts | 214° |
| 2026-05-06 16:13 | 42.41270 | 18.71378 | 22 ft | 7 kts | 142° |
| 2026-05-06 16:14 | 42.41247 | 18.71408 | 23 ft | 0 kts | 135° |
| 2026-05-06 16:14 | 42.41246 | 18.71409 | 23 ft | 0 kts | 135° |
| 2026-05-06 16:15 | 42.41153 | 18.71523 | 22 ft | 52 kts | 140° |
| 2026-05-06 16:15 | 42.40713 | 18.72039 | 21 ft | 115 kts | 139° |
| 2026-05-06 16:15 | 42.39979 | 18.72913 | 108 ft | 157 kts | 134° |
| 2026-05-06 16:15 | 42.39087 | 18.73868 | 600 ft | 168 kts | 144° |
| 2026-05-06 16:16 | 42.38009 | 18.74489 | 1309 ft | 170 kts | 166° |
| 2026-05-06 16:16 | 42.36868 | 18.74928 | 2054 ft | 174 kts | 162° |
| 2026-05-06 16:16 | 42.35648 | 18.75419 | 2424 ft | 193 kts | 161° |
| 2026-05-06 16:16 | 42.34308 | 18.75973 | 2765 ft | 216 kts | 161° |
| 2026-05-06 16:17 | 42.32770 | 18.76618 | 3258 ft | 238 kts | 160° |
| 2026-05-06 16:17 | 42.31177 | 18.77293 | 4059 ft | 246 kts | 162° |
| 2026-05-06 16:17 | 42.29503 | 18.78006 | 4953 ft | 253 kts | 163° |
| 2026-05-06 16:17 | 42.27801 | 18.78736 | 5778 ft | 260 kts | 164° |
| 2026-05-06 16:18 | 42.26057 | 18.79495 | 6599 ft | 267 kts | 163° |
| 2026-05-06 16:18 | 42.24295 | 18.80390 | 7375 ft | 274 kts | 160° |
| 2026-05-06 16:18 | 42.22525 | 18.81381 | 8207 ft | 278 kts | 159° |
| 2026-05-06 16:18 | 42.20728 | 18.82421 | 9051 ft | 283 kts | 159° |
| 2026-05-06 16:19 | 42.18902 | 18.83479 | 9870 ft | 288 kts | 160° |
| 2026-05-06 16:19 | 42.17041 | 18.84549 | 10624 ft | 293 kts | 160° |
| 2026-05-06 16:19 | 42.15155 | 18.85624 | 11410 ft | 296 kts | 160° |
| 2026-05-06 16:19 | 42.13249 | 18.86703 | 12189 ft | 299 kts | 160° |
| 2026-05-06 16:20 | 42.11319 | 18.87802 | 12967 ft | 303 kts | 158° |
| 2026-05-06 16:20 | 42.09499 | 18.89294 | 13669 ft | 313 kts | 144° |
| 2026-05-06 16:20 | 42.07833 | 18.91365 | 13863 ft | 338 kts | 137° |
| 2026-05-06 16:20 | 42.06131 | 18.93637 | 14026 ft | 359 kts | 137° |
| 2026-05-06 16:21 | 42.04357 | 18.96013 | 14454 ft | 368 kts | 137° |
| 2026-05-06 16:21 | 42.02499 | 18.98492 | 15039 ft | 372 kts | 137° |
| 2026-05-06 16:21 | 42.00872 | 19.00673 | 15574 ft | 377 kts | 137° |
| 2026-05-06 16:21 | 41.99046 | 19.03173 | 16201 ft | 382 kts | 136° |
| 2026-05-06 16:22 | 41.97189 | 19.05816 | 16869 ft | 386 kts | 135° |
| 2026-05-06 16:22 | 41.95421 | 19.08480 | 17549 ft | 388 kts | 133° |
| 2026-05-06 16:22 | 41.93670 | 19.11310 | 18264 ft | 390 kts | 131° |
| 2026-05-06 16:22 | 41.92040 | 19.14171 | 18879 ft | 391 kts | 129° |
| 2026-05-06 16:23 | 41.90482 | 19.17183 | 19499 ft | 393 kts | 126° |
| 2026-05-06 16:23 | 41.89019 | 19.20284 | 19995 ft | 398 kts | 126° |
| 2026-05-06 16:23 | 41.87123 | 19.23010 | 20156 ft | 403 kts | 147° |
| 2026-05-06 16:23 | 41.84747 | 19.25034 | 20518 ft | 408 kts | 152° |
| 2026-05-06 16:24 | 41.82309 | 19.27023 | 20984 ft | 412 kts | 152° |
| 2026-05-06 16:24 | 41.79852 | 19.29026 | 21462 ft | 415 kts | 152° |
| 2026-05-06 16:24 | 41.77577 | 19.31470 | 21891 ft | 426 kts | 134° |
| 2026-05-06 16:24 | 41.75946 | 19.34826 | 22312 ft | 437 kts | 116° |
| 2026-05-06 16:25 | 41.75136 | 19.37363 | 22608 ft | 440 kts | 115° |
| 2026-05-06 16:25 | 41.73919 | 19.41131 | 23057 ft | 443 kts | 116° |
| 2026-05-06 16:25 | 41.72632 | 19.44893 | 23505 ft | 446 kts | 117° |
| 2026-05-06 16:25 | 41.71277 | 19.48646 | 23881 ft | 449 kts | 118° |
| 2026-05-06 16:26 | 41.69875 | 19.52393 | 24269 ft | 452 kts | 119° |
| 2026-05-06 16:26 | 41.68448 | 19.56148 | 24659 ft | 454 kts | 119° |
| 2026-05-06 16:26 | 41.67015 | 19.59919 | 25036 ft | 456 kts | 119° |
| 2026-05-06 16:26 | 41.65582 | 19.63724 | 25410 ft | 459 kts | 118° |
| 2026-05-06 16:27 | 41.64156 | 19.67546 | 25773 ft | 461 kts | 118° |
| 2026-05-06 16:27 | 41.62730 | 19.71391 | 26149 ft | 463 kts | 118° |
| 2026-05-06 16:27 | 41.61315 | 19.75207 | 26509 ft | 465 kts | 118° |